createdAt,value
2019-05-13T00:00:03.604Z,39.39
2019-05-13T00:01:06.829Z,39.58
2019-05-13T00:02:54.392Z,39.49
2019-05-13T00:03:54.171Z,39.68
2019-05-13T00:05:45.481Z,39.49
2019-05-13T00:06:54.076Z,39.78
2019-05-13T00:08:37.519Z,39.68
2019-05-13T00:09:37.702Z,39.39
2019-05-13T00:11:29.560Z,39.39
2019-05-13T00:12:29.502Z,39.68
2019-05-13T00:14:23.795Z,39.20
2019-05-13T00:15:21.533Z,39.49
2019-05-13T00:17:14.599Z,39.68
2019-05-13T00:18:14.428Z,39.11
2019-05-13T00:20:05.537Z,39.68
2019-05-13T00:21:05.512Z,39.01
2019-05-13T00:22:57.590Z,39.49
2019-05-13T00:23:57.536Z,39.58
2019-05-13T00:25:49.633Z,39.20
2019-05-13T00:26:49.573Z,39.58
2019-05-13T00:28:44.219Z,39.20
2019-05-13T00:29:41.606Z,39.49
2019-05-13T00:31:33.732Z,39.49
2019-05-13T00:32:33.872Z,39.29
2019-05-13T00:34:25.726Z,39.11
2019-05-13T00:35:25.915Z,40.06
2019-05-13T00:37:17.744Z,39.39
2019-05-13T00:38:17.707Z,39.58
2019-05-13T00:40:09.793Z,39.58
2019-05-13T00:41:09.742Z,39.20
2019-05-13T00:43:03.787Z,39.01
2019-05-13T00:44:03.851Z,39.58
2019-05-13T00:45:53.859Z,39.39
2019-05-13T00:46:54.038Z,39.49
2019-05-13T00:48:45.881Z,39.39
2019-05-13T00:49:45.844Z,39.11
2019-05-13T00:51:37.934Z,39.58
2019-05-13T00:52:37.879Z,39.58
2019-05-13T00:54:29.969Z,39.49
2019-05-13T00:55:29.916Z,39.68
2019-05-13T00:57:23.834Z,39.49
2019-05-13T00:58:24.112Z,39.29
2019-05-13T01:00:14.412Z,39.68
2019-05-13T01:01:14.227Z,39.68
2019-05-13T01:03:06.177Z,39.01
2019-05-13T01:04:06.121Z,39.49
2019-05-13T01:05:58.313Z,39.68
2019-05-13T01:06:58.256Z,39.11
2019-05-13T01:08:50.330Z,39.49
2019-05-13T01:09:50.292Z,39.11
2019-05-13T01:11:43.745Z,39.68
2019-05-13T01:12:44.096Z,39.49
2019-05-13T01:14:34.544Z,39.68
2019-05-13T01:15:34.727Z,39.20
2019-05-13T01:17:26.461Z,39.29
2019-05-13T01:18:26.395Z,39.39
2019-05-13T01:20:18.569Z,39.39
2019-05-13T01:21:18.534Z,40.16
2019-05-13T01:23:10.624Z,39.58
2019-05-13T01:24:10.802Z,39.68
2019-05-13T01:26:03.901Z,39.49
2019-05-13T01:27:03.889Z,39.58
2019-05-13T01:28:54.690Z,39.49
2019-05-13T01:29:54.635Z,39.49
2019-05-13T01:31:46.727Z,39.49
2019-05-13T01:32:46.933Z,39.39
2019-05-13T01:34:38.739Z,38.91
2019-05-13T01:35:38.937Z,39.49
2019-05-13T01:37:41.977Z,39.68
2019-05-13T01:38:30.739Z,39.68
2019-05-13T01:40:23.918Z,39.11
2019-05-13T01:41:24.074Z,39.29
2019-05-13T01:43:14.872Z,39.68
2019-05-13T01:44:14.806Z,39.20
2019-05-13T01:46:06.881Z,39.29
2019-05-13T01:47:07.073Z,40.16
2019-05-13T01:48:58.934Z,39.68
2019-05-13T01:49:59.110Z,39.49
2019-05-13T01:51:50.945Z,39.58
2019-05-13T01:52:52.961Z,39.68
2019-05-13T01:54:44.218Z,39.58
2019-05-13T01:55:44.329Z,39.68
2019-05-13T01:57:35.013Z,39.49
2019-05-13T01:58:34.977Z,39.68
2019-05-13T02:00:26.870Z,39.11
2019-05-13T02:01:26.815Z,39.20
2019-05-13T02:03:18.896Z,39.39
2019-05-13T02:04:19.076Z,39.39
2019-05-13T02:06:10.923Z,39.39
2019-05-13T02:07:11.109Z,39.58
2019-05-13T02:09:03.978Z,39.58
2019-05-13T02:10:04.288Z,39.39
2019-05-13T02:11:55.082Z,39.39
2019-05-13T02:12:55.044Z,39.20
2019-05-13T02:14:47.137Z,39.20
2019-05-13T02:15:47.078Z,39.97
2019-05-13T02:17:39.182Z,39.49
2019-05-13T02:18:39.350Z,39.49
2019-05-13T02:20:33.481Z,40.16
2019-05-13T02:21:33.480Z,39.39
2019-05-13T02:23:23.879Z,39.68
2019-05-13T02:24:23.649Z,39.68
2019-05-13T02:26:15.277Z,39.68
2019-05-13T02:27:15.216Z,39.78
2019-05-13T02:29:07.287Z,39.29
2019-05-13T02:30:07.254Z,39.49
2019-05-13T02:54:42.459Z,39.49
2019-05-13T02:55:39.183Z,39.29
2019-05-13T02:57:32.720Z,39.39
2019-05-13T02:58:33.318Z,39.11
2019-05-13T03:00:23.682Z,39.58
2019-05-13T03:01:23.278Z,39.49
2019-05-13T03:03:15.232Z,39.49
2019-05-13T03:04:15.178Z,39.39
2019-05-13T03:06:07.278Z,39.49
2019-05-13T03:07:07.210Z,39.68
2019-05-13T03:08:59.086Z,39.39
2019-05-13T03:09:59.060Z,39.47
2019-05-13T03:11:53.554Z,39.11
2019-05-13T03:12:53.426Z,39.49
2019-05-13T03:14:47.867Z,39.58
2019-05-13T03:15:43.116Z,39.39
2019-05-13T03:17:35.204Z,39.20
2019-05-13T03:18:35.144Z,39.49
2019-05-13T03:20:27.217Z,39.29
2019-05-13T03:21:27.179Z,39.39
2019-05-13T03:23:22.482Z,39.11
2019-05-13T03:24:22.439Z,39.49
2019-05-13T03:26:13.110Z,39.20
2019-05-13T03:27:12.800Z,39.20
2019-05-13T03:29:03.152Z,39.29
2019-05-13T03:30:04.478Z,39.29
2019-05-13T03:31:56.472Z,39.11
2019-05-13T03:33:02.136Z,39.29
2019-05-13T03:34:47.199Z,39.39
2019-05-13T03:35:47.176Z,39.11
2019-05-13T03:37:42.078Z,39.20
2019-05-13T03:38:58.742Z,39.20
2019-05-13T03:40:32.939Z,39.20
2019-05-13T03:41:32.940Z,39.20
2019-05-13T03:43:23.208Z,39.20
2019-05-13T03:44:23.566Z,39.20
2019-05-13T03:46:15.131Z,39.20
2019-05-13T03:47:15.074Z,39.11
2019-05-13T03:49:07.147Z,39.01
2019-05-13T03:50:07.115Z,39.11
2019-05-13T03:52:02.452Z,39.20
2019-05-13T03:53:02.628Z,39.11
2019-05-13T03:54:52.077Z,39.01
2019-05-13T03:55:54.019Z,39.11
2019-05-13T03:57:43.065Z,39.01
2019-05-13T03:58:43.744Z,39.11
2019-05-13T04:00:35.081Z,39.01
2019-05-13T04:01:35.044Z,39.01
2019-05-13T04:03:27.241Z,39.20
2019-05-13T04:04:27.183Z,39.20
2019-05-13T04:06:19.266Z,39.20
2019-05-13T04:07:19.216Z,39.11
2019-05-13T04:09:22.295Z,39.11
2019-05-13T04:10:13.182Z,39.11
2019-05-13T04:12:03.579Z,39.29
2019-05-13T04:13:04.054Z,39.29
2019-05-13T04:14:55.356Z,39.11
2019-05-13T04:15:55.333Z,39.39
2019-05-13T04:17:47.409Z,38.91
2019-05-13T04:18:47.351Z,38.62
2019-05-13T04:20:42.155Z,38.72
2019-05-13T04:21:42.706Z,38.72
2019-05-13T04:23:32.511Z,38.53
2019-05-13T04:24:33.250Z,38.43
2019-05-13T04:26:24.041Z,38.81
2019-05-13T04:27:23.659Z,38.72
2019-05-13T04:29:15.344Z,38.72
2019-05-13T04:30:15.286Z,38.72
2019-05-13T04:32:07.357Z,38.91
2019-05-13T04:33:07.555Z,38.91
2019-05-13T04:34:59.502Z,38.62
2019-05-13T04:36:02.390Z,38.34
2019-05-13T04:37:52.582Z,38.62
2019-05-13T04:38:52.878Z,38.24
2019-05-13T04:40:43.661Z,38.62
2019-05-13T04:41:43.861Z,38.53
2019-05-13T04:43:35.722Z,38.43
2019-05-13T04:44:35.895Z,38.43
2019-05-13T04:46:27.733Z,38.43
2019-05-13T04:47:27.933Z,38.34
2019-05-13T04:49:22.982Z,38.43
2019-05-13T04:50:22.320Z,38.45
2019-05-13T04:52:13.383Z,38.07
2019-05-13T04:53:13.612Z,38.07
2019-05-13T04:55:03.856Z,38.26
2019-05-13T04:56:03.712Z,37.97
2019-05-13T04:57:55.695Z,38.16
2019-05-13T04:58:55.863Z,38.16
2019-05-13T05:00:49.668Z,38.16
2019-05-13T05:01:53.128Z,37.87
2019-05-13T05:03:42.098Z,37.77
2019-05-13T05:04:43.348Z,37.49
2019-05-13T05:06:33.166Z,37.39
2019-05-13T05:07:32.656Z,37.20
2019-05-13T05:09:23.820Z,37.01
2019-05-13T05:10:33.635Z,37.01
2019-05-13T05:12:15.837Z,37.12
2019-05-13T05:13:16.038Z,37.22
2019-05-13T05:15:07.893Z,37.12
2019-05-13T05:16:07.865Z,36.93
2019-05-13T05:18:02.613Z,36.83
2019-05-13T05:19:02.108Z,36.74
2019-05-13T05:20:52.044Z,36.64
2019-05-13T05:21:55.195Z,36.64
2019-05-13T05:23:44.203Z,36.64
2019-05-13T05:24:44.146Z,35.97
2019-05-13T05:26:36.217Z,34.92
2019-05-13T05:27:36.178Z,35.22
2019-05-13T05:29:28.268Z,35.79
2019-05-13T05:30:28.217Z,35.89
2019-05-13T05:32:21.485Z,35.79
2019-05-13T05:33:21.435Z,35.99
2019-05-13T05:35:12.315Z,35.99
2019-05-13T05:36:12.282Z,35.99
2019-05-13T05:38:04.471Z,36.56
2019-05-13T05:39:04.429Z,36.47
2019-05-13T05:40:56.384Z,36.56
2019-05-13T05:41:56.355Z,36.37
2019-05-13T05:43:48.448Z,36.47
2019-05-13T05:44:48.387Z,36.27
2019-05-13T05:46:42.744Z,36.56
2019-05-13T05:47:41.868Z,36.27
2019-05-13T05:49:32.391Z,36.56
2019-05-13T05:50:32.247Z,35.89
2019-05-13T05:52:24.317Z,35.70
2019-05-13T05:53:24.283Z,35.62
2019-05-13T05:55:16.439Z,35.62
2019-05-13T05:56:16.363Z,35.42
2019-05-13T05:58:08.416Z,35.33
2019-05-13T05:59:08.355Z,35.14
2019-05-13T06:01:02.569Z,35.14
2019-05-13T06:02:01.967Z,34.77
2019-05-13T06:03:52.653Z,34.77
2019-05-13T06:04:52.547Z,35.06
2019-05-13T06:06:45.363Z,34.86
2019-05-13T06:07:44.572Z,34.86
2019-05-13T06:09:36.881Z,35.06
2019-05-13T06:10:47.325Z,35.25
2019-05-13T06:12:28.802Z,34.86
2019-05-13T06:13:28.958Z,34.50
2019-05-13T06:15:22.572Z,35.46
2019-05-13T06:16:21.795Z,36.04
2019-05-13T06:18:12.848Z,35.36
2019-05-13T06:19:12.795Z,35.36
2019-05-13T06:21:04.686Z,35.17
2019-05-13T06:22:04.632Z,34.88
2019-05-13T06:23:56.771Z,35.58
2019-05-13T06:24:56.659Z,35.85
2019-05-13T06:26:48.833Z,35.46
2019-05-13T06:27:51.102Z,36.43
2019-05-13T06:29:42.289Z,36.71
2019-05-13T06:30:41.589Z,36.71
2019-05-13T06:32:33.048Z,37.10
2019-05-13T06:33:33.017Z,37.02
2019-05-13T06:35:25.036Z,36.73
2019-05-13T06:36:25.008Z,36.93
2019-05-13T06:38:17.087Z,36.73
2019-05-13T06:39:17.266Z,37.12
2019-05-13T06:41:12.310Z,37.43
2019-05-13T06:42:11.467Z,36.85
2019-05-13T06:44:02.571Z,36.65
2019-05-13T06:45:01.954Z,36.55
2019-05-13T06:46:53.098Z,36.46
2019-05-13T06:47:53.268Z,35.90
2019-05-13T06:49:45.107Z,35.71
2019-05-13T06:50:45.073Z,35.90
2019-05-13T06:52:37.201Z,35.80
2019-05-13T06:53:37.338Z,35.71
2019-05-13T06:55:31.458Z,35.69
2019-05-13T06:56:32.090Z,36.00
2019-05-13T06:58:22.305Z,35.90
2019-05-13T06:59:22.323Z,35.80
2019-05-13T07:01:13.165Z,36.19
2019-05-13T07:02:13.124Z,36.48
2019-05-13T07:04:05.094Z,36.38
2019-05-13T07:05:05.060Z,36.48
2019-05-13T07:07:10.048Z,36.19
2019-05-13T07:07:57.076Z,36.09
2019-05-13T07:09:51.618Z,36.67
2019-05-13T07:10:51.404Z,36.57
2019-05-13T07:12:41.351Z,36.38
2019-05-13T07:13:42.281Z,36.38
2019-05-13T07:15:33.107Z,36.38
2019-05-13T07:16:33.981Z,36.57
2019-05-13T07:18:25.177Z,36.77
2019-05-13T07:19:25.111Z,36.57
2019-05-13T07:21:17.297Z,36.48
2019-05-13T07:22:17.244Z,36.48
2019-05-13T07:24:09.415Z,36.40
2019-05-13T07:25:11.440Z,36.69
2019-05-13T07:27:02.099Z,36.50
2019-05-13T07:28:02.111Z,36.69
2019-05-13T07:29:55.458Z,36.01
2019-05-13T07:30:53.453Z,35.82
2019-05-13T07:32:45.441Z,36.50
2019-05-13T07:33:45.384Z,36.42
2019-05-13T07:35:38.176Z,36.52
2019-05-13T07:36:37.417Z,36.32
2019-05-13T07:38:29.484Z,35.94
2019-05-13T07:39:29.452Z,35.94
2019-05-13T07:41:35.271Z,36.22
2019-05-13T07:42:22.208Z,36.03
2019-05-13T07:44:13.662Z,35.84
2019-05-13T07:45:13.853Z,35.74
2019-05-13T07:47:05.745Z,35.64
2019-05-13T07:48:19.483Z,35.84
2019-05-13T07:49:57.731Z,35.55
2019-05-13T07:51:00.763Z,35.57
2019-05-13T07:52:51.463Z,35.86
2019-05-13T07:53:51.794Z,35.47
2019-05-13T07:55:42.250Z,35.86
2019-05-13T07:56:42.746Z,35.76
2019-05-13T07:58:37.429Z,35.57
2019-05-13T07:59:34.006Z,35.37
2019-05-13T08:01:26.091Z,35.39
2019-05-13T08:02:26.034Z,35.49
2019-05-13T08:04:22.836Z,35.39
2019-05-13T08:05:18.066Z,35.49
2019-05-13T08:07:12.015Z,35.10
2019-05-13T08:08:11.667Z,35.10
2019-05-13T08:10:03.588Z,35.12
2019-05-13T08:11:02.248Z,34.54
2019-05-13T08:12:54.407Z,35.12
2019-05-13T08:13:54.629Z,35.21
2019-05-13T08:15:46.469Z,34.63
2019-05-13T08:16:46.435Z,34.44
2019-05-13T08:18:38.574Z,35.49
2019-05-13T08:19:38.567Z,35.66
2019-05-13T08:21:32.271Z,32.56
2019-05-13T08:22:32.068Z,34.90
2019-05-13T08:24:22.830Z,35.53
2019-05-13T08:25:22.612Z,33.80
2019-05-13T08:27:15.038Z,32.65
2019-05-13T08:28:14.958Z,32.15
2019-05-13T08:30:07.046Z,32.17
2019-05-13T08:31:06.993Z,31.89
2019-05-13T08:33:01.589Z,30.93
2019-05-13T08:34:02.206Z,31.02
2019-05-13T08:35:54.040Z,31.31
2019-05-13T08:36:51.460Z,31.02
2019-05-13T08:38:51.694Z,30.54
2019-05-13T08:39:44.618Z,30.17
2019-05-13T08:41:37.698Z,30.55
2019-05-13T08:42:36.275Z,29.83
2019-05-13T08:44:28.849Z,31.88
2019-05-13T08:45:31.471Z,31.12
2019-05-13T08:47:22.431Z,30.07
2019-05-13T08:48:22.212Z,29.78
2019-05-13T08:50:14.521Z,29.38
2019-05-13T08:51:13.980Z,29.10
2019-05-13T08:53:04.962Z,28.81
2019-05-13T08:54:04.987Z,28.72
2019-05-13T08:55:57.123Z,28.51
2019-05-13T08:56:57.119Z,27.64
2019-05-13T08:58:47.800Z,28.72
2019-05-13T08:59:47.977Z,28.14
2019-05-13T09:01:42.431Z,27.56
2019-05-13T09:02:41.996Z,28.04
2019-05-13T09:04:32.021Z,28.02
2019-05-13T09:05:32.149Z,27.34
2019-05-13T09:07:24.433Z,27.62
2019-05-13T09:08:23.756Z,28.52
2019-05-13T09:10:15.940Z,27.28
2019-05-13T09:11:15.882Z,27.57
2019-05-13T09:13:07.982Z,26.50
2019-05-13T09:14:08.152Z,27.26
2019-05-13T09:16:02.426Z,26.29
2019-05-13T09:17:01.780Z,27.62
2019-05-13T09:18:52.242Z,26.88
2019-05-13T09:19:52.183Z,26.98
2019-05-13T09:21:44.074Z,26.51
2019-05-13T09:22:44.254Z,26.12
2019-05-13T09:24:37.792Z,26.03
2019-05-13T09:25:36.083Z,26.21
2019-05-13T09:27:27.953Z,26.21
2019-05-13T09:28:27.897Z,25.83
2019-05-13T09:30:22.219Z,25.03
2019-05-13T09:31:22.082Z,26.88
2019-05-13T09:33:12.809Z,25.82
2019-05-13T09:34:12.429Z,26.31
2019-05-13T09:36:04.231Z,25.93
2019-05-13T09:37:04.431Z,24.96
2019-05-13T09:38:56.273Z,25.14
2019-05-13T09:39:58.545Z,25.93
2019-05-13T09:41:48.326Z,25.13
2019-05-13T09:42:52.784Z,26.68
2019-05-13T09:44:41.955Z,26.67
2019-05-13T09:45:41.817Z,26.48
2019-05-13T09:47:33.831Z,27.45
2019-05-13T09:48:34.250Z,27.93
2019-05-13T09:50:29.270Z,26.86
2019-05-13T09:51:24.466Z,27.06
2019-05-13T09:53:16.608Z,28.22
2019-05-13T09:54:16.507Z,28.04
2019-05-13T09:56:08.577Z,28.33
2019-05-13T09:57:08.528Z,27.56
2019-05-13T09:59:01.783Z,27.75
2019-05-13T10:00:01.656Z,27.66
2019-05-13T10:01:52.760Z,27.56
2019-05-13T10:02:52.733Z,27.73
2019-05-13T10:04:44.876Z,28.23
2019-05-13T10:05:45.081Z,27.94
2019-05-13T10:07:36.939Z,26.59
2019-05-13T10:08:37.102Z,27.64
2019-05-13T10:10:29.028Z,27.26
2019-05-13T10:11:29.135Z,28.52
2019-05-13T10:13:23.160Z,28.23
2019-05-13T10:14:23.016Z,27.85
2019-05-13T10:16:13.020Z,28.14
2019-05-13T10:17:13.377Z,28.43
2019-05-13T10:19:05.104Z,26.88
2019-05-13T10:20:05.020Z,27.66
2019-05-13T10:21:57.088Z,26.98
2019-05-13T10:22:57.050Z,26.87
2019-05-13T10:24:51.384Z,27.72
2019-05-13T10:25:52.021Z,28.80
2019-05-13T10:27:41.834Z,27.66
2019-05-13T10:28:42.632Z,26.48
2019-05-13T10:30:33.196Z,27.04
2019-05-13T10:31:33.387Z,26.28
2019-05-13T10:33:25.339Z,26.57
2019-05-13T10:34:25.521Z,26.19
2019-05-13T10:36:17.485Z,25.99
2019-05-13T10:37:17.661Z,26.19
2019-05-13T10:39:11.657Z,24.05
2019-05-13T10:40:11.616Z,26.28
2019-05-13T10:42:03.666Z,25.98
2019-05-13T10:43:02.030Z,26.19
2019-05-13T10:44:53.568Z,25.71
2019-05-13T10:45:53.529Z,25.81
2019-05-13T10:47:45.729Z,25.71
2019-05-13T10:48:45.897Z,26.57
2019-05-13T10:50:37.732Z,25.61
2019-05-13T10:51:37.724Z,25.99
2019-05-13T10:53:32.014Z,23.97
2019-05-13T10:54:32.310Z,24.35
2019-05-13T10:56:22.029Z,26.09
2019-05-13T10:57:21.981Z,26.09
2019-05-13T10:59:14.156Z,25.13
2019-05-13T11:00:14.108Z,25.79
2019-05-13T11:02:06.235Z,25.90
2019-05-13T11:03:06.384Z,25.51
2019-05-13T11:04:58.322Z,25.32
2019-05-13T11:05:58.515Z,24.26
2019-05-13T11:07:51.765Z,23.87
2019-05-13T11:08:53.113Z,22.41
2019-05-13T11:10:42.506Z,23.18
2019-05-13T11:11:42.681Z,23.38
2019-05-13T11:13:50.437Z,22.70
2019-05-13T11:14:34.507Z,22.12
2019-05-13T11:16:26.384Z,22.60
2019-05-13T11:17:30.977Z,22.59
2019-05-13T11:19:18.487Z,23.17
2019-05-13T11:20:18.465Z,23.17
2019-05-13T11:22:12.272Z,23.27
2019-05-13T11:23:12.496Z,22.69
2019-05-13T11:25:02.735Z,22.30
2019-05-13T11:26:03.365Z,23.75
2019-05-13T11:27:58.370Z,23.75
2019-05-13T11:28:54.369Z,24.63
2019-05-13T11:30:46.560Z,23.57
2019-05-13T11:31:46.491Z,24.15
2019-05-13T11:33:38.604Z,23.57
2019-05-13T11:34:38.521Z,23.47
2019-05-13T11:36:33.340Z,23.47
2019-05-13T11:37:32.025Z,23.76
2019-05-13T11:39:22.640Z,22.89
2019-05-13T11:40:22.652Z,23.17
2019-05-13T11:42:14.678Z,24.62
2019-05-13T11:43:14.624Z,24.23
2019-05-13T11:45:06.598Z,24.33
2019-05-13T11:46:06.556Z,24.43
2019-05-13T11:48:02.058Z,23.17
2019-05-13T11:48:58.695Z,22.59
2019-05-13T11:50:53.905Z,22.50
2019-05-13T11:51:51.993Z,22.49
2019-05-13T11:53:42.850Z,23.25
2019-05-13T11:54:42.784Z,23.25
2019-05-13T11:56:34.849Z,22.87
2019-05-13T11:57:34.796Z,22.19
2019-05-13T11:59:26.904Z,22.00
2019-05-13T12:00:26.832Z,22.29
2019-05-13T12:02:22.871Z,21.62
2019-05-13T12:03:18.880Z,22.30
2019-05-13T12:05:10.968Z,22.59
2019-05-13T12:06:10.898Z,21.71
2019-05-13T12:08:03.024Z,22.58
2019-05-13T12:09:03.731Z,22.02
2019-05-13T12:10:55.106Z,22.39
2019-05-13T12:11:55.075Z,22.39
2019-05-13T12:13:47.254Z,22.30
2019-05-13T12:15:16.113Z,22.19
2019-05-13T12:16:42.102Z,22.39
2019-05-13T12:17:42.090Z,22.29
2019-05-13T12:19:31.322Z,21.81
2019-05-13T12:20:32.832Z,22.19
2019-05-13T12:22:23.361Z,21.42
2019-05-13T12:23:23.318Z,21.81
2019-05-13T12:25:15.425Z,21.81
2019-05-13T12:26:15.346Z,20.75
2019-05-13T12:28:07.415Z,21.52
2019-05-13T12:29:14.605Z,21.91
2019-05-13T12:31:03.551Z,21.23
2019-05-13T12:32:03.039Z,21.52
2019-05-13T12:33:52.223Z,21.71
2019-05-13T12:34:52.721Z,21.12
2019-05-13T12:36:43.699Z,21.71
2019-05-13T12:37:43.814Z,21.61
2019-05-13T12:39:35.651Z,21.12
2019-05-13T12:40:35.666Z,21.23
2019-05-13T12:42:27.823Z,21.42
2019-05-13T12:43:27.985Z,21.33
2019-05-13T12:45:22.423Z,21.52
2019-05-13T12:46:20.026Z,21.42
2019-05-13T12:48:13.892Z,21.13
2019-05-13T12:49:14.167Z,21.52
2019-05-13T12:51:04.120Z,21.12
2019-05-13T12:52:04.789Z,21.42
2019-05-13T12:53:56.255Z,21.52
2019-05-13T12:54:56.201Z,21.81
2019-05-13T12:56:48.290Z,21.91
2019-05-13T12:57:48.234Z,21.12
2019-05-13T12:59:43.568Z,21.23
2019-05-13T13:00:43.362Z,21.71
2019-05-13T13:02:32.703Z,21.70
2019-05-13T13:03:32.485Z,22.38
2019-05-13T13:05:32.710Z,22.10
2019-05-13T13:06:32.237Z,21.99
2019-05-13T13:08:37.979Z,21.12
2019-05-13T13:09:17.145Z,21.80
2019-05-13T13:11:09.377Z,20.92
2019-05-13T13:12:09.681Z,21.70
2019-05-13T13:14:05.272Z,22.09
2019-05-13T13:15:20.461Z,22.09
2019-05-13T13:16:53.984Z,22.10
2019-05-13T13:17:53.902Z,22.00
2019-05-13T13:19:44.347Z,20.93
2019-05-13T13:20:44.534Z,21.41
2019-05-13T13:22:36.392Z,21.89
2019-05-13T13:23:36.884Z,21.99
2019-05-13T13:25:28.408Z,22.19
2019-05-13T13:26:28.371Z,22.09
2019-05-13T13:28:23.823Z,22.38
2019-05-13T13:29:22.050Z,22.29
2019-05-13T13:31:13.163Z,22.76
2019-05-13T13:32:13.391Z,22.47
2019-05-13T13:34:12.038Z,22.96
2019-05-13T13:35:04.479Z,22.86
2019-05-13T13:36:56.667Z,23.07
2019-05-13T13:37:56.848Z,22.96
2019-05-13T13:39:48.705Z,23.44
2019-05-13T13:40:48.879Z,23.45
2019-05-13T13:42:43.073Z,23.74
2019-05-13T13:43:41.971Z,24.21
2019-05-13T13:45:52.084Z,24.50
2019-05-13T13:46:41.285Z,24.30
2019-05-13T13:48:25.945Z,24.21
2019-05-13T13:49:24.749Z,24.30
2019-05-13T13:51:16.821Z,24.79
2019-05-13T13:52:16.786Z,24.88
2019-05-13T13:54:08.919Z,24.69
2019-05-13T13:55:09.444Z,24.88
2019-05-13T13:57:02.445Z,24.60
2019-05-13T13:58:02.267Z,24.79
2019-05-13T14:01:06.034Z,24.98
2019-05-13T14:02:44.855Z,24.88
2019-05-13T14:03:46.304Z,24.98
2019-05-13T14:05:36.906Z,24.98
2019-05-13T14:08:28.922Z,25.08
2019-05-13T14:09:28.889Z,25.08
2019-05-13T14:11:23.172Z,24.88
2019-05-13T14:12:22.016Z,25.18
2019-05-13T14:14:13.112Z,24.98
2019-05-13T14:15:13.298Z,25.18
2019-05-13T14:17:05.157Z,25.18
2019-05-13T14:18:05.095Z,25.27
2019-05-13T14:19:57.168Z,25.18
2019-05-13T14:20:57.130Z,25.37
2019-05-13T14:22:53.237Z,25.37
2019-05-13T14:23:51.785Z,25.37
2019-05-13T14:25:42.047Z,25.66
2019-05-13T14:26:43.435Z,25.56
2019-05-13T14:28:33.292Z,25.75
2019-05-13T14:29:48.328Z,25.56
2019-05-13T14:31:25.311Z,25.66
2019-05-13T14:32:25.263Z,25.66
2019-05-13T14:34:17.366Z,25.85
2019-05-13T14:35:17.299Z,25.85
2019-05-13T14:37:11.532Z,25.85
2019-05-13T14:38:11.737Z,25.85
2019-05-13T14:40:02.480Z,26.04
2019-05-13T14:41:03.475Z,26.04
2019-05-13T14:42:53.560Z,26.14
2019-05-13T14:43:53.507Z,26.42
2019-05-13T14:45:45.575Z,26.42
2019-05-13T14:46:47.867Z,26.43
2019-05-13T14:48:37.633Z,26.32
2019-05-13T14:49:37.600Z,26.51
2019-05-13T14:51:32.261Z,26.51
2019-05-13T14:52:32.216Z,26.51
2019-05-13T14:54:21.792Z,26.51
2019-05-13T14:55:21.975Z,26.90
2019-05-13T14:57:14.946Z,26.90
2019-05-13T14:58:13.778Z,27.19
2019-05-13T15:00:05.854Z,27.19
2019-05-13T15:01:15.895Z,27.00
2019-05-13T15:02:57.898Z,27.28
2019-05-13T15:03:57.849Z,27.38
2019-05-13T15:05:49.936Z,27.38
2019-05-13T15:06:49.882Z,27.57
2019-05-13T15:08:42.247Z,27.28
2019-05-13T15:09:42.327Z,27.76
2019-05-13T15:11:33.986Z,27.57
2019-05-13T15:12:34.182Z,27.57
2019-05-13T15:14:26.041Z,27.48
2019-05-13T15:15:25.986Z,27.96
2019-05-13T15:17:18.072Z,27.56
2019-05-13T15:18:18.033Z,27.86
2019-05-13T15:20:12.134Z,28.05
2019-05-13T15:21:12.124Z,27.85
2019-05-13T15:23:02.143Z,28.33
2019-05-13T15:24:02.520Z,27.75
2019-05-13T15:25:54.179Z,27.76
2019-05-13T15:26:54.354Z,28.42
2019-05-13T15:28:46.196Z,28.05
2019-05-13T15:29:46.388Z,28.72
2019-05-13T15:31:38.248Z,28.23
2019-05-13T15:32:38.431Z,28.14
2019-05-13T15:34:31.738Z,28.23
2019-05-13T15:35:32.112Z,28.23
2019-05-13T15:37:22.307Z,28.23
2019-05-13T15:38:22.260Z,28.42
2019-05-13T15:40:14.348Z,28.42
2019-05-13T15:41:15.724Z,28.42
2019-05-13T15:43:06.386Z,28.52
2019-05-13T15:44:06.329Z,28.62
2019-05-13T15:45:58.413Z,28.72
2019-05-13T15:47:00.109Z,28.62
2019-05-13T15:48:51.452Z,28.62
2019-05-13T15:49:50.399Z,28.52
2019-05-13T15:51:42.572Z,28.81
2019-05-13T15:52:43.435Z,28.62
2019-05-13T15:54:34.618Z,28.81
2019-05-13T15:55:34.631Z,28.81
2019-05-13T15:57:26.660Z,28.62
2019-05-13T15:58:38.453Z,28.62
2019-05-13T16:00:18.774Z,28.81
2019-05-13T16:01:18.970Z,29.10
2019-05-13T16:03:12.219Z,28.81
2019-05-13T16:04:13.500Z,28.81
2019-05-13T16:06:02.876Z,28.81
2019-05-13T16:07:03.041Z,28.81
2019-05-13T16:08:54.923Z,28.81
2019-05-13T16:09:54.845Z,29.00
2019-05-13T16:11:46.933Z,29.20
2019-05-13T16:12:46.878Z,29.00
2019-05-13T16:14:38.947Z,29.10
2019-05-13T16:15:41.466Z,29.10
2019-05-13T16:17:41.050Z,28.91
2019-05-13T16:18:31.658Z,29.00
2019-05-13T16:20:23.045Z,28.99
2019-05-13T16:21:22.995Z,29.20
2019-05-13T16:23:15.050Z,29.38
2019-05-13T16:24:15.252Z,29.08
2019-05-13T16:26:07.110Z,29.28
2019-05-13T16:27:07.293Z,29.18
2019-05-13T16:29:01.806Z,29.39
2019-05-13T16:29:59.085Z,29.47
2019-05-13T16:31:51.902Z,29.66
2019-05-13T16:32:52.139Z,29.86
2019-05-13T16:34:43.296Z,29.66
2019-05-13T16:35:43.260Z,29.66
2019-05-13T16:37:35.650Z,29.57
2019-05-13T16:38:35.828Z,29.57
2019-05-13T16:40:27.684Z,29.66
2019-05-13T16:41:27.656Z,29.57
2019-05-13T16:43:20.903Z,29.57
2019-05-13T16:44:22.274Z,29.76
2019-05-13T16:46:12.291Z,29.76
2019-05-13T16:47:12.410Z,29.76
2019-05-13T16:49:03.875Z,29.76
2019-05-13T16:50:03.839Z,29.76
2019-05-13T16:51:55.929Z,29.76
2019-05-13T16:52:55.874Z,29.76
2019-05-13T16:54:47.843Z,29.76
2019-05-13T16:55:47.804Z,29.66
2019-05-13T16:57:42.175Z,29.86
2019-05-13T16:58:41.721Z,29.76
2019-05-13T17:00:32.130Z,30.15
2019-05-13T17:01:32.306Z,29.76
2019-05-13T17:03:24.158Z,29.86
2019-05-13T17:04:24.108Z,29.95
2019-05-13T17:06:16.204Z,30.05
2019-05-13T17:07:16.142Z,30.05
2019-05-13T17:09:08.627Z,29.95
2019-05-13T17:10:08.822Z,30.15
2019-05-13T17:12:01.409Z,29.95
2019-05-13T17:13:02.854Z,30.15
2019-05-13T17:14:52.693Z,30.24
2019-05-13T17:15:52.655Z,29.95
2019-05-13T17:17:44.745Z,29.86
2019-05-13T17:18:44.923Z,30.05
2019-05-13T17:20:36.788Z,29.95
2019-05-13T17:21:36.751Z,30.24
2019-05-13T17:23:28.917Z,30.15
2019-05-13T17:24:28.861Z,30.24
2019-05-13T17:26:22.086Z,30.24
2019-05-13T17:27:21.399Z,30.15
2019-05-13T17:29:12.800Z,30.24
2019-05-13T17:30:12.762Z,30.24
2019-05-13T17:32:04.816Z,30.34
2019-05-13T17:33:04.991Z,30.34
2019-05-13T17:34:56.830Z,30.53
2019-05-13T17:35:57.026Z,30.22
2019-05-13T17:37:51.156Z,30.32
2019-05-13T17:38:49.375Z,30.43
2019-05-13T17:40:42.007Z,30.43
2019-05-13T17:41:41.617Z,30.22
2019-05-13T17:43:33.264Z,30.52
2019-05-13T17:44:33.454Z,30.52
2019-05-13T17:46:25.327Z,30.22
2019-05-13T17:47:25.472Z,30.13
2019-05-13T17:49:17.329Z,30.22
2019-05-13T17:50:17.272Z,30.13
2019-05-13T17:52:11.361Z,30.61
2019-05-13T17:53:11.436Z,30.71
2019-05-13T17:55:01.405Z,30.71
2019-05-13T17:56:02.340Z,30.90
2019-05-13T17:57:53.414Z,30.80
2019-05-13T17:58:53.377Z,30.90
2019-05-13T18:00:45.466Z,30.71
2019-05-13T18:01:45.411Z,30.90
2019-05-13T18:03:37.586Z,30.80
2019-05-13T18:04:37.783Z,30.80
2019-05-13T18:06:29.639Z,30.71
2019-05-13T18:07:31.945Z,30.71
2019-05-13T18:09:22.421Z,30.71
2019-05-13T18:10:22.599Z,30.71
2019-05-13T18:12:13.998Z,30.80
2019-05-13T18:13:14.190Z,31.00
2019-05-13T18:15:06.045Z,30.80
2019-05-13T18:16:06.223Z,30.71
2019-05-13T18:17:58.061Z,31.00
2019-05-13T18:18:58.027Z,30.90
2019-05-13T18:20:52.100Z,30.90
2019-05-13T18:21:51.615Z,30.80
2019-05-13T18:23:42.125Z,30.61
2019-05-13T18:24:42.095Z,31.19
2019-05-13T18:26:34.187Z,30.71
2019-05-13T18:27:34.129Z,31.09
2019-05-13T18:29:26.301Z,30.71
2019-05-13T18:30:26.264Z,30.90
2019-05-13T18:32:18.348Z,31.09
2019-05-13T18:33:18.533Z,30.71
2019-05-13T18:35:12.267Z,30.90
2019-05-13T18:36:11.977Z,30.71
2019-05-13T18:38:02.533Z,30.90
2019-05-13T18:39:02.473Z,31.09
2019-05-13T18:40:54.545Z,31.00
2019-05-13T18:41:54.504Z,31.19
2019-05-13T18:43:46.599Z,30.88
2019-05-13T18:44:46.773Z,31.18
2019-05-13T18:46:38.625Z,31.09
2019-05-13T18:47:38.576Z,31.09
2019-05-13T18:49:31.869Z,31.27
2019-05-13T18:50:31.385Z,31.18
2019-05-13T18:52:22.708Z,31.29